Time;durP1;ratioP1;P1;durP2;ratioP2;P2;SDS_P1;SDS_P2;PMS_P1;PMS_P2;Temp;Humidity;BMP_temperature;BMP_pressure;BME280_temperature;BME280_humidity;BME280_pressure;Samples;Min_cycle;Max_cycle;Signal;HPM_P1;HPM_P2
2022/09/28 00:01:31;;;;;;;3.93;0.50;;;;;;;9.16;100.00;96987.91;4984836;28;20228;-58
2022/09/28 00:03:58;;;;;;;2.50;0.57;;;;;;;9.19;100.00;96981.50;5005150;28;20278;-58
2022/09/28 00:06:27;;;;;;;3.30;0.50;;;;;;;9.14;100.00;96967.25;4984969;28;20267;-55
2022/09/28 00:08:56;;;;;;;3.27;0.80;;;;;;;9.11;100.00;96970.22;5005070;28;20232;-58
2022/09/28 00:11:26;;;;;;;2.03;1.23;;;;;;;9.14;100.00;96961.25;5003335;28;20298;-58
2022/09/28 00:13:56;;;;;;;1.47;0.30;;;;;;;9.08;100.00;96964.56;5006113;28;20312;-58
2022/09/28 00:16:25;;;;;;;3.53;0.57;;;;;;;9.09;100.00;96940.94;5001231;28;20251;-58
2022/09/28 00:18:52;;;;;;;4.10;0.50;;;;;;;9.12;100.00;96937.19;5005104;28;20311;-59
2022/09/28 00:21:21;;;;;;;3.23;0.40;;;;;;;9.13;100.00;96926.59;5002382;28;20236;-57
2022/09/28 00:26:33;;;;;;;2.30;0.80;;;;;;;9.21;100.00;96923.06;5003206;28;20314;-58
2022/09/28 00:29:02;;;;;;;3.67;0.50;;;;;;;9.23;100.00;96908.06;5003966;28;20627;-58
2022/09/28 00:31:32;;;;;;;7.93;0.90;;;;;;;9.36;100.00;96911.81;5001160;28;20244;-58
2022/09/28 00:33:59;;;;;;;3.10;0.70;;;;;;;9.39;100.00;96903.63;4978098;28;20302;-57
2022/09/28 00:36:27;;;;;;;3.40;0.80;;;;;;;9.41;100.00;96914.66;5001630;28;20230;-57
2022/09/28 00:38:54;;;;;;;3.10;0.90;;;;;;;9.42;100.00;96892.84;5003729;28;20224;-57
2022/09/28 00:41:20;;;;;;;7.93;1.13;;;;;;;9.42;100.00;96892.84;5001272;28;20217;-57
2022/09/28 00:43:48;;;;;;;5.20;0.97;;;;;;;9.43;100.00;96886.63;4995422;28;20237;-56
2022/09/28 00:46:19;;;;;;;5.27;1.10;;;;;;;9.49;100.00;96883.28;5001991;28;20228;-57
2022/09/28 00:48:51;;;;;;;7.40;1.20;;;;;;;9.53;100.00;96871.50;5001644;28;20229;-57
2022/09/28 00:51:18;;;;;;;8.23;1.40;;;;;;;9.55;100.00;96859.06;4981976;28;20283;-58
2022/09/28 00:53:47;;;;;;;4.53;1.03;;;;;;;9.56;100.00;96863.28;4986250;28;20238;-57
2022/09/28 00:56:18;;;;;;;4.43;1.10;;;;;;;9.60;100.00;96861.13;5002475;28;20236;-57
2022/09/28 00:58:49;;;;;;;4.60;1.37;;;;;;;9.64;100.00;96880.59;4977509;28;20224;-57
2022/09/28 01:01:16;;;;;;;8.37;1.20;;;;;;;9.69;100.00;96864.38;5002705;28;20307;-56
2022/09/28 01:03:44;;;;;;;8.63;1.30;;;;;;;9.70;100.00;96863.41;4980447;28;20244;-57
2022/09/28 01:06:17;;;;;;;3.33;1.40;;;;;;;9.69;100.00;96851.38;4989337;28;20248;-56
2022/09/28 01:08:45;;;;;;;3.80;0.90;;;;;;;9.69;100.00;96851.38;4979751;28;20240;-58
2022/09/28 01:11:13;;;;;;;7.33;1.57;;;;;;;9.68;100.00;96857.56;4984654;28;20236;-58
2022/09/28 01:13:42;;;;;;;4.10;1.03;;;;;;;9.71;100.00;96841.56;4984599;28;20232;-57
2022/09/28 01:16:19;;;;;;;6.77;1.50;;;;;;;9.71;100.00;96834.56;4987560;28;20240;-57
2022/09/28 01:18:59;;;;;;;5.63;1.17;;;;;;;9.74;100.00;96828.16;4973873;28;20235;-57
2022/09/28 01:21:28;;;;;;;5.60;1.17;;;;;;;9.75;100.00;96827.97;4973909;28;20246;-57
2022/09/28 01:24:13;;;;;;;8.90;1.63;;;;;;;9.78;100.00;96831.19;4986949;28;20232;-57
2022/09/28 01:27:05;;;;;;;4.57;1.27;;;;;;;9.78;100.00;96831.19;5001985;28;20244;-56
2022/09/28 01:29:41;;;;;;;3.13;1.03;;;;;;;9.80;100.00;96829.22;5001927;28;20700;-58
2022/09/28 01:32:16;;;;;;;4.40;1.00;;;;;;;9.83;100.00;96819.19;5005107;28;20294;-57
2022/09/28 01:34:52;;;;;;;4.30;1.00;;;;;;;9.85;100.00;96819.81;4984426;28;21214;-57
2022/09/28 01:37:21;;;;;;;3.40;0.90;;;;;;;9.86;100.00;96805.78;4983365;28;20240;-58
2022/09/28 01:39:51;;;;;;;11.70;1.40;;;;;;;9.90;100.00;96801.81;4982982;28;20295;-57
2022/09/28 01:42:24;;;;;;;4.33;0.90;;;;;;;9.88;100.00;96792.59;4999140;28;20584;-57
2022/09/28 01:44:55;;;;;;;3.53;1.00;;;;;;;9.94;100.00;96806.63;4978436;28;20232;-57
2022/09/28 01:47:26;;;;;;;7.53;1.47;;;;;;;9.92;100.00;96798.19;4975521;28;20233;-57
2022/09/28 01:49:59;;;;;;;4.97;1.00;;;;;;;9.94;100.00;96796.22;4985286;28;20585;-58
2022/09/28 01:52:30;;;;;;;1.37;0.63;;;;;;;9.92;100.00;96786.00;5000387;28;20644;-55
2022/09/28 01:55:02;;;;;;;4.83;0.87;;;;;;;9.89;100.00;96796.81;4994065;28;20231;-58
2022/09/28 01:57:38;;;;;;;2.10;1.00;;;;;;;9.82;100.00;96788.94;4999960;28;20623;-57
2022/09/28 02:00:07;;;;;;;2.60;0.67;;;;;;;9.80;100.00;96803.94;4986134;28;20244;-56
2022/09/28 02:02:48;;;;;;;1.93;0.80;;;;;;;9.82;100.00;96814.97;5001701;28;20230;-57
2022/09/28 02:05:21;;;;;;;3.97;1.03;;;;;;;9.75;100.00;96806.31;4984856;28;20228;-57
2022/09/28 02:07:54;;;;;;;3.47;0.90;;;;;;;9.69;100.00;96800.09;4984882;28;20235;-57
2022/09/28 02:10:24;;;;;;;5.07;1.00;;;;;;;9.62;100.00;96798.41;4983497;28;20307;-58
2022/09/28 02:12:58;;;;;;;3.43;0.90;;;;;;;9.58;100.00;96801.38;4986105;28;20224;-57
2022/09/28 02:15:30;;;;;;;3.10;0.83;;;;;;;9.58;100.00;96792.78;5001307;28;20224;-57
2022/09/28 02:17:59;;;;;;;5.33;1.40;;;;;;;9.55;100.00;96796.56;5000973;28;20255;-57
2022/09/28 02:20:28;;;;;;;3.70;0.90;;;;;;;9.55;100.00;96790.56;5001274;28;20371;-57
2022/09/28 02:22:56;;;;;;;3.33;0.90;;;;;;;9.51;100.00;96791.94;4985806;28;20229;-57
2022/09/28 02:25:30;;;;;;;4.40;1.27;;;;;;;9.49;100.00;96791.31;4984292;28;20224;-59
2022/09/28 02:28:00;;;;;;;3.10;0.90;;;;;;;9.48;100.00;96780.09;4986088;28;20780;-58
2022/09/28 02:30:29;;;;;;;5.97;1.00;;;;;;;9.47;100.00;96770.69;4983498;28;20240;-57
2022/09/28 02:33:01;;;;;;;5.47;1.00;;;;;;;9.51;100.00;96773.69;4974671;28;20351;-57
2022/09/28 02:35:28;;;;;;;5.43;0.90;;;;;;;9.53;100.00;96774.31;4983791;28;20589;-58
2022/09/28 02:37:56;;;;;;;4.17;1.00;;;;;;;9.54;100.00;96771.50;4994971;28;20695;-57
2022/09/28 02:40:25;;;;;;;4.83;0.93;;;;;;;9.53;100.00;96767.31;5001143;28;20225;-56
2022/09/28 02:42:56;;;;;;;4.80;1.30;;;;;;;9.53;100.00;96769.09;4986307;28;20232;-54
2022/09/28 02:45:36;;;;;;;3.37;0.73;;;;;;;9.54;100.00;96797.56;4983386;28;20217;-55
2022/09/28 02:48:17;;;;;;;8.63;1.20;;;;;;;9.55;100.00;96765.31;5004243;28;20236;-57
2022/09/28 02:50:59;;;;;;;6.10;1.10;;;;;;;9.55;100.00;96773.13;4986363;28;20295;-57
2022/09/28 02:53:45;;;;;;;5.57;1.67;;;;;;;9.54;100.00;96758.47;4986620;28;20290;-58
2022/09/28 02:56:31;;;;;;;5.07;1.47;;;;;;;9.56;100.00;96758.31;4969419;28;20688;-57
2022/09/28 02:59:07;;;;;;;3.90;0.90;;;;;;;9.55;100.00;96759.31;4987392;28;20240;-57
2022/09/28 03:04:28;;;;;;;2.33;0.90;;;;;;;9.59;100.00;96765.75;5542706;23;20303;-56
2022/09/28 03:06:59;;;;;;;4.57;1.20;;;;;;;9.61;100.00;96753.34;4973992;28;20236;-58
2022/09/28 03:09:32;;;;;;;3.30;1.20;;;;;;;9.60;100.00;96754.34;4980270;28;20231;-56
2022/09/28 03:12:04;;;;;;;3.37;0.90;;;;;;;9.57;100.00;96763.31;4981002;28;20229;-55
2022/09/28 03:14:31;;;;;;;4.13;1.10;;;;;;;9.57;100.00;96778.94;4968626;28;20713;-55
2022/09/28 03:16:58;;;;;;;5.30;1.00;;;;;;;9.62;100.00;96761.94;4962044;28;20253;-57
2022/09/28 03:19:31;;;;;;;5.23;1.10;;;;;;;9.59;100.00;96763.94;4955603;28;20242;-57
2022/09/28 03:21:59;;;;;;;5.17;1.93;;;;;;;9.58;100.00;96762.31;4962748;28;20225;-57
2022/09/28 03:24:26;;;;;;;3.43;0.90;;;;;;;9.53;100.00;96759.50;4963460;28;20324;-56
2022/09/28 03:26:52;;;;;;;3.20;1.07;;;;;;;9.53;100.00;96764.72;4960207;28;20257;-57
2022/09/28 03:29:19;;;;;;;3.07;1.30;;;;;;;9.56;100.00;96758.31;4964513;28;20222;-58
2022/09/28 03:31:51;;;;;;;1.87;0.80;;;;;;;9.54;100.00;96774.09;4961624;28;20234;-57
2022/09/28 03:34:17;;;;;;;4.63;1.87;;;;;;;9.53;100.00;96767.31;4982585;28;20235;-56
2022/09/28 03:36:45;;;;;;;1.83;0.83;;;;;;;9.54;100.00;96762.91;4957200;28;20248;-54
2022/09/28 03:39:12;;;;;;;4.07;1.50;;;;;;;9.53;100.00;96754.31;4966079;28;20222;-57
2022/09/28 03:41:38;;;;;;;4.27;1.60;;;;;;;9.53;100.00;96762.13;4956609;28;20273;-56
2022/09/28 03:44:05;;;;;;;7.23;1.60;;;;;;;9.53;100.00;96740.47;4956968;28;20249;-56
2022/09/28 03:46:33;;;;;;;3.97;0.97;;;;;;;9.51;100.00;96755.47;4963915;28;20224;-57
2022/09/28 03:49:05;;;;;;;1.63;0.70;;;;;;;9.53;100.00;96753.47;4966664;28;20236;-56
2022/09/28 03:51:31;;;;;;;4.93;1.10;;;;;;;9.48;100.00;96764.47;4963838;28;20260;-58
2022/09/28 03:53:59;;;;;;;2.73;1.00;;;;;;;9.51;100.00;96752.88;4958845;28;20337;-56
2022/09/28 03:56:26;;;;;;;2.53;0.93;;;;;;;9.49;100.00;96758.28;4963571;28;20226;-56
2022/09/28 03:58:53;;;;;;;2.30;1.10;;;;;;;9.45;100.00;96746.63;4963926;28;20237;-56
2022/09/28 04:01:20;;;;;;;4.30;1.60;;;;;;;9.47;100.00;96742.03;4963336;28;20230;-56
2022/09/28 04:03:47;;;;;;;3.53;1.80;;;;;;;9.44;100.00;96742.41;4959604;28;20865;-57
2022/09/28 04:06:15;;;;;;;3.47;0.90;;;;;;;9.44;100.00;96740.59;4965798;28;20238;-57
2022/09/28 04:08:42;;;;;;;2.70;1.00;;;;;;;9.43;100.00;96751.22;4956564;28;20253;-56
2022/09/28 04:11:10;;;;;;;5.27;1.63;;;;;;;9.45;100.00;96750.03;4962836;28;20253;-55
2022/09/28 04:13:36;;;;;;;2.75;1.08;;;;;;;9.45;100.00;96754.44;4934296;29;20531;-56
2022/09/28 04:16:03;;;;;;;4.23;0.90;;;;;;;9.44;100.00;96751.03;4943441;28;20226;-56
2022/09/28 04:18:34;;;;;;;3.83;1.03;;;;;;;9.44;100.00;96750.22;4954766;28;20230;-56
2022/09/28 04:21:15;;;;;;;2.03;0.77;;;;;;;9.45;100.00;96742.22;4965753;28;20225;-58
2022/09/28 04:23:50;;;;;;;1.90;1.00;;;;;;;9.43;100.00;96733.78;4956548;28;20245;-57
2022/09/28 04:26:20;;;;;;;7.60;6.80;;;;;;;9.45;100.00;96744.03;4965959;28;20225;-56
2022/09/28 04:31:38;;;;;;;4.07;1.40;;;;;;;9.42;100.00;96765.25;4962739;28;20218;-57
2022/09/28 04:34:04;;;;;;;7.80;1.73;;;;;;;9.26;100.00;96777.53;4965548;28;20300;-57
2022/09/28 04:36:32;;;;;;;7.07;1.57;;;;;;;9.15;100.00;96781.44;4962541;28;20292;-55
2022/09/28 04:38:59;;;;;;;8.80;1.67;;;;;;;9.01;100.00;96777.09;4965644;28;20241;-56
2022/09/28 04:41:28;;;;;;;9.57;2.03;;;;;;;8.97;100.00;96778.50;4961448;28;20575;-56
2022/09/28 04:43:56;;;;;;;9.07;2.03;;;;;;;8.88;100.00;96779.59;4960577;28;20238;-56
2022/09/28 04:46:25;;;;;;;9.60;2.03;;;;;;;8.85;100.00;96772.97;4962582;28;20224;-57
2022/09/28 04:49:11;;;;;;;5.83;1.67;;;;;;;8.84;100.00;96772.16;4966773;28;20232;-55
2022/09/28 04:51:46;;;;;;;6.63;1.47;;;;;;;8.85;100.00;96775.56;4943188;29;20240;-55
2022/09/28 04:54:12;;;;;;;8.97;1.60;;;;;;;8.82;100.00;96763.75;4962001;28;20238;-57
2022/09/28 04:56:40;;;;;;;10.70;1.53;;;;;;;8.86;100.00;96771.97;4946740;28;20771;-57
2022/09/28 04:59:07;;;;;;;10.53;1.70;;;;;;;8.88;100.00;96783.00;4966796;28;20602;-57
2022/09/28 05:01:36;;;;;;;5.50;1.57;;;;;;;8.84;100.00;96779.97;4955065;28;20340;-58
2022/09/28 05:04:22;;;;;;;6.27;1.53;;;;;;;8.85;100.00;96784.19;4962591;28;20320;-56
2022/09/28 05:07:08;;;;;;;8.67;1.33;;;;;;;8.85;100.00;96786.78;4966402;28;20365;-56
2022/09/28 05:09:35;;;;;;;6.07;1.13;;;;;;;8.84;100.00;96785.19;4953868;28;20250;-58
2022/09/28 05:12:04;;;;;;;6.73;1.40;;;;;;;8.81;100.00;96782.13;4965073;28;20380;-57
2022/09/28 05:14:31;;;;;;;6.63;1.20;;;;;;;8.82;100.00;96788.94;4963561;28;20226;-57
2022/09/28 05:16:57;;;;;;;6.20;1.70;;;;;;;8.80;100.00;96786.53;4959626;28;20230;-57
2022/09/28 05:19:27;;;;;;;10.20;1.87;;;;;;;8.74;100.00;96784.66;4963456;28;20288;-56
2022/09/28 05:22:02;;;;;;;9.87;4.03;;;;;;;8.73;100.00;96785.66;4960268;28;20280;-57
2022/09/28 05:24:30;;;;;;;10.57;2.63;;;;;;;8.74;100.00;96789.88;4951423;28;20245;-58
2022/09/28 05:26:57;;;;;;;3.83;1.23;;;;;;;8.72;100.00;96797.06;4940447;28;20232;-56
2022/09/28 05:29:25;;;;;;;8.37;2.33;;;;;;;8.74;100.00;96805.47;4944567;28;20805;-55
2022/09/28 05:32:10;;;;;;;10.27;7.53;;;;;;;8.77;100.00;96801.69;4950839;28;20618;-56
2022/09/28 05:34:59;;;;;;;4.13;2.70;;;;;;;8.75;100.00;96820.09;4956477;28;20241;-57
2022/09/28 05:37:29;;;;;;;4.70;1.70;;;;;;;8.80;100.00;96824.75;4962225;28;20245;-57
2022/09/28 05:39:58;;;;;;;7.33;2.10;;;;;;;8.79;100.00;96833.53;4960047;28;20229;-57
2022/09/28 05:42:25;;;;;;;11.07;3.00;;;;;;;8.81;100.00;96834.16;4961466;28;20233;-58
2022/09/28 05:44:53;;;;;;;10.70;4.03;;;;;;;8.83;100.00;96830.41;4958895;28;20234;-57
2022/09/28 05:47:20;;;;;;;4.53;2.53;;;;;;;8.86;100.00;96837.84;4960910;28;20229;-57
2022/09/28 05:49:46;;;;;;;4.87;2.60;;;;;;;8.89;100.00;96841.84;4957228;28;20249;-57
2022/09/28 05:52:13;;;;;;;6.50;3.97;;;;;;;8.95;100.00;96837.72;4964676;28;20817;-56
2022/09/28 05:54:40;;;;;;;5.17;2.60;;;;;;;8.96;100.00;96834.91;4954596;28;20233;-57
2022/09/28 05:57:07;;;;;;;7.13;2.20;;;;;;;8.98;100.00;96834.75;4964583;28;20637;-57
2022/09/28 05:59:35;;;;;;;5.50;2.10;;;;;;;9.07;100.00;96830.22;4961301;28;20231;-57
2022/09/28 06:02:04;;;;;;;6.40;2.13;;;;;;;9.16;100.00;96831.72;4954037;28;20326;-55
2022/09/28 06:04:31;;;;;;;6.33;1.77;;;;;;;9.19;100.00;96835.72;4958875;28;20273;-57
2022/09/28 06:06:59;;;;;;;6.40;2.27;;;;;;;9.23;100.00;96843.00;4959733;28;20597;-57
2022/09/28 06:09:26;;;;;;;5.67;1.73;;;;;;;9.26;100.00;96826.19;4961741;28;20713;-55
2022/09/28 06:11:53;;;;;;;10.93;2.07;;;;;;;9.29;100.00;96841.44;4965620;28;20319;-56
2022/09/28 06:14:29;;;;;;;7.27;2.50;;;;;;;9.39;100.00;96841.13;4960207;28;20332;-56
2022/09/28 06:16:56;;;;;;;6.80;1.73;;;;;;;9.40;100.00;96837.53;4965647;28;20241;-57
2022/09/28 06:19:24;;;;;;;6.13;1.70;;;;;;;9.40;100.00;96842.75;4959444;28;20226;-57
2022/09/28 06:22:24;;;;;;;5.93;2.53;;;;;;;9.41;100.00;96844.34;4960868;28;20231;-57
2022/09/28 06:25:05;;;;;;;6.70;1.37;;;;;;;9.48;100.00;96850.44;4963593;28;20692;-56
2022/09/28 06:27:33;;;;;;;8.93;2.43;;;;;;;9.48;100.00;96847.00;4963997;28;20223;-57
2022/09/28 06:30:01;;;;;;;6.03;2.27;;;;;;;9.56;100.00;96844.25;4967672;28;20253;-57
2022/09/28 06:32:29;;;;;;;5.00;1.80;;;;;;;9.59;100.00;96857.69;4970828;28;20712;-58
2022/09/28 06:34:57;;;;;;;6.93;1.80;;;;;;;9.70;100.00;96850.38;4962216;28;20238;-57
2022/09/28 06:37:26;;;;;;;5.33;1.50;;;;;;;9.74;100.00;96865.44;4965057;28;20229;-57
2022/09/28 06:39:53;;;;;;;10.73;2.23;;;;;;;9.66;100.00;96860.38;4962605;28;20232;-57
2022/09/28 06:42:20;;;;;;;5.67;1.77;;;;;;;9.63;100.00;96860.75;4964954;28;20326;-56
2022/09/28 06:45:24;;;;;;;9.13;2.07;;;;;;;9.56;100.00;96865.91;4952044;28;20261;-57
2022/09/28 06:48:22;;;;;;;7.73;2.30;;;;;;;9.52;100.00;96869.06;4942493;28;20699;-56
2022/09/28 06:50:50;;;;;;;6.87;1.90;;;;;;;9.55;100.00;96881.72;4961442;28;20229;-54
2022/09/28 06:53:28;;;;;;;8.43;2.50;;;;;;;9.56;100.00;96873.72;4965963;28;20244;-56
2022/09/28 06:56:01;;;;;;;9.03;2.03;;;;;;;9.59;100.00;96883.75;4963447;28;20629;-56
2022/09/28 06:58:30;;;;;;;8.67;3.00;;;;;;;9.58;100.00;96881.34;4963911;28;20230;-57
2022/09/28 07:00:59;;;;;;;6.57;2.20;;;;;;;9.65;100.00;96887.44;4963038;28;20238;-57
2022/09/28 07:03:27;;;;;;;10.30;3.03;;;;;;;9.63;100.00;96881.59;4963257;28;20232;-57
2022/09/28 07:05:57;;;;;;;10.03;2.97;;;;;;;9.56;100.00;96894.53;4968566;28;20710;-57
2022/09/28 07:09:05;;;;;;;12.30;2.53;;;;;;;9.54;100.00;96901.75;4962309;28;20248;-56
2022/09/28 07:11:40;;;;;;;6.87;2.63;;;;;;;9.57;100.00;96909.19;4948255;28;20586;-57
2022/09/28 07:14:19;;;;;;;14.83;2.40;;;;;;;9.61;100.00;96914.84;4950160;28;20242;-56
2022/09/28 07:16:45;;;;;;;8.67;3.27;;;;;;;9.63;100.00;96914.63;4958325;28;21028;-56
2022/09/28 07:19:13;;;;;;;6.47;2.50;;;;;;;9.73;100.00;96920.34;4972448;28;20273;-57
2022/09/28 07:21:41;;;;;;;9.63;2.33;;;;;;;9.86;100.00;96924.88;4956640;28;20262;-57
2022/09/28 07:24:13;;;;;;;8.23;2.70;;;;;;;9.94;100.00;96927.34;4958845;28;20261;-56
2022/09/28 07:26:58;;;;;;;12.47;2.50;;;;;;;9.95;100.00;96928.97;4959649;28;20253;-58
2022/09/28 07:29:54;;;;;;;10.43;2.90;;;;;;;10.04;100.00;96932.22;4951221;28;20310;-57
2022/09/28 07:32:39;;;;;;;12.23;2.70;;;;;;;10.02;100.00;96937.63;4965317;28;26280;-55
2022/09/28 07:35:27;;;;;;;10.87;2.67;;;;;;;9.97;100.00;96941.78;4964392;28;20226;-57
2022/09/28 07:38:03;;;;;;;12.43;3.23;;;;;;;10.14;100.00;96945.75;4950370;28;20249;-56
2022/09/28 07:43:19;;;;;;;6.13;2.10;;;;;;;10.31;100.00;96950.66;4964144;28;20241;-57
2022/09/28 07:45:47;;;;;;;9.57;2.60;;;;;;;10.34;100.00;96955.50;4950191;28;20259;-56
2022/09/28 07:48:14;;;;;;;11.00;2.70;;;;;;;10.29;100.00;96961.28;4957661;28;20241;-56
2022/09/28 07:50:59;;;;;;;9.60;2.30;;;;;;;10.23;100.00;96969.84;4958953;28;20244;-57
2022/09/28 07:53:48;;;;;;;9.77;2.40;;;;;;;10.30;100.00;96969.91;4956379;28;20235;-55
2022/09/28 07:56:33;;;;;;;8.80;2.80;;;;;;;10.30;100.00;96977.75;4964424;28;20689;-57
2022/09/28 07:59:20;;;;;;;7.83;2.63;;;;;;;10.37;100.00;96981.22;4948543;28;20242;-57
2022/09/28 08:02:02;;;;;;;7.73;2.30;;;;;;;10.48;100.00;96979.91;4966291;28;20257;-57
2022/09/28 08:04:29;;;;;;;12.27;2.70;;;;;;;10.37;100.00;96989.03;4946027;28;20238;-56
2022/09/28 08:06:56;;;;;;;7.70;3.10;;;;;;;10.39;100.00;96987.06;4949504;28;20238;-57
2022/09/28 08:09:24;;;;;;;11.57;3.27;;;;;;;10.52;100.00;96985.56;4963952;28;20749;-57
2022/09/28 08:12:26;;;;;;;10.80;2.70;;;;;;;10.48;100.00;96987.72;4963900;28;20346;-56
2022/09/28 08:15:10;;;;;;;5.63;2.07;;;;;;;10.66;100.00;96987.22;4961829;28;20764;-57
2022/09/28 08:17:47;;;;;;;10.00;2.53;;;;;;;10.73;100.00;96985.47;4953926;28;20722;-57
2022/09/28 08:23:14;;;;;;;5.97;1.63;;;;;;;10.72;98.51;96990.88;4860986;29;20234;-57
2022/09/28 08:25:47;;;;;;;8.83;2.40;;;;;;;10.97;93.58;96996.44;4870611;29;20312;-57
2022/09/28 08:28:16;;;;;;;10.83;2.40;;;;;;;10.86;94.75;97000.41;4915628;28;20225;-57
2022/09/28 08:30:46;;;;;;;12.30;2.93;;;;;;;10.96;97.36;96997.44;4943951;29;20310;-57
2022/09/28 08:33:21;;;;;;;15.53;7.73;;;;;;;10.93;95.99;97010.88;4965050;28;20721;-56
2022/09/28 08:36:06;;;;;;;7.67;2.97;;;;;;;10.94;93.22;97015.09;4964570;28;20230;-57
2022/09/28 08:39:11;;;;;;;11.63;2.70;;;;;;;10.99;92.55;97011.91;4839757;29;20250;-57
2022/09/28 08:42:07;;;;;;;8.20;2.57;;;;;;;10.83;93.71;97011.22;4841540;29;20375;-56
2022/09/28 08:44:56;;;;;;;7.13;4.20;;;;;;;10.86;93.60;97016.06;4937546;28;20242;-56
2022/09/28 08:51:20;;;;;;;12.13;2.50;;;;;;;10.83;96.75;97023.47;4882594;29;20652;-56
2022/09/28 08:54:11;;;;;;;10.63;2.80;;;;;;;10.78;97.43;97029.25;4958575;28;20707;-55
2022/09/28 08:56:55;;;;;;;9.57;2.10;;;;;;;10.67;97.85;97038.41;4962889;28;20242;-56
2022/09/28 08:59:27;;;;;;;6.57;2.33;;;;;;;11.05;96.42;97032.03;4962139;28;20254;-58
2022/09/28 09:02:03;;;;;;;8.43;2.50;;;;;;;11.17;95.53;97033.06;4960619;28;20237;-56
2022/09/28 09:04:33;;;;;;;10.70;2.43;;;;;;;11.58;93.82;97036.66;4962256;28;20242;-57
2022/09/28 09:07:58;;;;;;;8.83;2.50;;;;;;;11.84;92.24;97039.53;4942693;28;20253;-57
2022/09/28 09:10:41;;;;;;;12.60;2.77;;;;;;;11.79;86.64;97046.16;4958028;28;20231;-56
2022/09/28 09:13:36;;;;;;;6.57;2.23;;;;;;;11.56;89.65;97049.13;4960490;28;20241;-56
2022/09/28 09:16:18;;;;;;;8.40;2.40;;;;;;;11.76;89.73;97048.34;4946404;28;20713;-57
2022/09/28 09:19:17;;;;;;;14.27;2.30;;;;;;;11.78;87.17;97051.56;4954275;28;20718;-54
2022/09/28 09:22:16;;;;;;;10.80;2.30;;;;;;;11.77;89.54;97057.81;4950920;28;20246;-57
2022/09/28 09:24:49;;;;;;;8.70;2.00;;;;;;;11.87;87.76;97057.44;4954579;28;20244;-57
2022/09/28 09:27:31;;;;;;;7.37;2.90;;;;;;;12.14;88.13;97060.94;4957729;28;20236;-57
2022/09/28 09:30:06;;;;;;;10.50;2.23;;;;;;;12.23;82.77;97064.97;4956978;28;20587;-56
2022/09/28 09:33:03;;;;;;;12.70;2.77;;;;;;;12.01;84.09;97064.34;4948636;28;20615;-57
2022/09/28 09:35:58;;;;;;;10.77;2.10;;;;;;;12.44;83.45;97070.19;4949514;28;20358;-57
2022/09/28 09:39:09;;;;;;;5.93;2.07;;;;;;;12.63;84.75;97061.53;4873892;28;20356;-57
2022/09/28 09:42:06;;;;;;;6.10;2.50;;;;;;;12.75;83.11;97068.78;4908093;28;20243;-56
2022/09/28 09:45:29;;;;;;;6.87;2.33;;;;;;;12.72;82.94;97069.19;4898327;28;20733;-56
2022/09/28 09:48:19;;;;;;;9.27;2.20;;;;;;;12.79;81.10;97060.31;4898346;28;20263;-55
2022/09/28 09:50:50;;;;;;;9.53;2.30;;;;;;;12.99;80.62;97059.47;4919615;28;20231;-54
2022/09/28 09:53:23;;;;;;;7.23;2.07;;;;;;;13.13;76.83;97063.66;4941893;28;20243;-59
2022/09/28 09:55:56;;;;;;;12.27;2.50;;;;;;;12.71;79.53;97068.41;4955684;28;20248;-56
2022/09/28 09:58:46;;;;;;;9.17;2.37;;;;;;;12.62;79.07;97067.00;4963975;28;20713;-57
2022/09/28 10:01:32;;;;;;;14.77;2.53;;;;;;;12.65;80.59;97075.22;4963133;28;20335;-57
2022/09/28 10:04:22;;;;;;;7.33;2.23;;;;;;;12.64;76.82;97070.22;4969206;28;20611;-56
2022/09/28 10:06:52;;;;;;;5.17;1.70;;;;;;;12.71;78.69;97081.50;4946089;29;20256;-56
2022/09/28 10:09:24;;;;;;;12.40;2.43;;;;;;;12.45;80.72;97070.00;4967534;28;20306;-56
2022/09/28 10:11:52;;;;;;;5.87;1.63;;;;;;;12.73;79.61;97076.03;4954695;28;20232;-57
2022/09/28 10:14:21;;;;;;;6.70;2.08;;;;;;;12.68;76.06;97074.03;4949132;28;20460;-55
2022/09/28 10:17:16;;;;;;;8.53;2.93;;;;;;;12.78;75.12;97068.38;4949136;28;20228;-57
2022/09/28 10:20:05;;;;;;;6.70;2.13;;;;;;;12.83;79.95;97073.81;4961923;28;20246;-58
2022/09/28 10:23:15;;;;;;;5.70;2.07;;;;;;;13.20;77.45;97068.09;4938540;28;20354;-55
2022/09/28 10:25:44;;;;;;;10.30;2.30;;;;;;;13.27;76.19;97059.19;4948652;28;20235;-55
2022/09/28 10:28:19;;;;;;;5.27;2.40;;;;;;;13.35;74.54;97059.97;4951280;28;20709;-58
2022/09/28 10:30:45;;;;;;;7.93;1.70;;;;;;;13.06;74.13;97056.84;4954178;28;20220;-53
2022/09/28 10:33:28;;;;;;;6.67;1.57;;;;;;;13.11;76.93;97055.22;4968931;28;20294;-55
2022/09/28 10:35:59;;;;;;;6.10;2.10;;;;;;;13.28;77.94;97066.03;4959392;28;20237;-54
2022/09/28 10:38:26;;;;;;;5.97;2.13;;;;;;;12.97;77.57;97067.56;4964933;28;20244;-55
2022/09/28 10:40:59;;;;;;;6.33;1.87;;;;;;;12.65;75.61;97066.59;4962577;28;20239;-55
2022/09/28 10:44:04;;;;;;;8.40;2.87;;;;;;;12.07;79.10;97062.72;4963353;28;20240;-54
2022/09/28 10:46:35;;;;;;;4.43;2.23;;;;;;;12.05;78.77;97067.34;4964082;28;20869;-52
2022/09/28 10:49:06;;;;;;;9.40;2.40;;;;;;;12.28;79.12;97061.75;4967552;28;20244;-52
2022/09/28 10:51:46;;;;;;;4.87;1.70;;;;;;;12.59;77.08;97065.56;4964385;28;20604;-55
2022/09/28 10:54:18;;;;;;;4.50;1.90;;;;;;;12.03;76.88;97064.13;4967189;28;20264;-55
2022/09/28 10:56:48;;;;;;;7.47;2.33;;;;;;;12.01;79.11;97066.97;4945898;29;20238;-55
2022/09/28 10:59:25;;;;;;;3.97;2.17;;;;;;;11.74;79.07;97064.25;4961710;28;20683;-55
2022/09/28 11:01:57;;;;;;;4.37;1.90;;;;;;;11.88;79.40;97075.53;4951259;28;20219;-55
2022/09/28 11:04:27;;;;;;;6.57;2.10;;;;;;;12.00;79.31;97075.81;4939027;28;20871;-56
2022/09/28 11:06:58;;;;;;;7.13;1.57;;;;;;;12.32;78.88;97076.03;4967093;28;20700;-54
2022/09/28 11:09:29;;;;;;;7.47;2.27;;;;;;;12.23;75.58;97070.19;4977529;28;20227;-55
2022/09/28 11:11:58;;;;;;;6.30;1.70;;;;;;;12.28;75.56;97071.41;4976617;28;20239;-56
2022/09/28 11:14:30;;;;;;;6.13;1.90;;;;;;;11.87;73.35;97073.91;4963270;28;20282;-56
2022/09/28 11:17:16;;;;;;;6.97;2.10;;;;;;;12.51;71.35;97077.06;4961553;28;20344;-56
2022/09/28 11:19:43;;;;;;;6.83;1.83;;;;;;;12.85;74.56;97071.81;4964563;28;20247;-53
2022/09/28 11:22:23;;;;;;;10.90;1.80;;;;;;;12.93;73.75;97068.16;4966905;28;20595;-54
2022/09/28 11:25:13;;;;;;;5.37;1.90;;;;;;;12.79;71.92;97067.38;4944631;28;20240;-52
2022/09/28 11:27:40;;;;;;;7.93;2.03;;;;;;;12.54;70.62;97062.75;4944582;28;23265;-55
2022/09/28 11:30:22;;;;;;;4.53;1.47;;;;;;;12.46;71.19;97069.00;4947570;29;20279;-55
2022/09/28 11:33:13;;;;;;;6.50;1.97;;;;;;;12.51;72.21;97066.59;4960745;28;20672;-53
2022/09/28 11:36:34;;;;;;;5.90;1.67;;;;;;;12.68;70.00;97066.19;4963232;28;20294;-55
2022/09/28 11:39:11;;;;;;;6.13;2.43;;;;;;;12.73;71.15;97057.72;4947758;28;20285;-54
2022/09/28 11:42:06;;;;;;;2.90;1.50;;;;;;;12.57;74.00;97057.13;4964182;28;20275;-54
2022/09/28 11:44:40;;;;;;;6.17;1.50;;;;;;;12.75;70.93;97063.56;4962305;28;20254;-55
2022/09/28 11:47:29;;;;;;;4.83;1.57;;;;;;;12.80;67.53;97064.53;4950473;28;20720;-54
2022/09/28 11:50:02;;;;;;;4.23;1.53;;;;;;;12.78;70.63;97060.53;4947450;28;20818;-55
2022/09/28 11:52:39;;;;;;;4.37;1.70;;;;;;;12.78;72.33;97058.69;4946815;28;20230;-55
2022/09/28 11:55:14;;;;;;;5.47;1.47;;;;;;;12.89;70.67;97053.84;4950135;28;20649;-54
2022/09/28 11:57:45;;;;;;;10.37;1.83;;;;;;;12.82;73.77;97056.50;4947480;28;20244;-56
2022/09/28 12:00:15;;;;;;;7.93;1.87;;;;;;;12.78;70.41;97060.53;4949847;28;20235;-52
2022/09/28 12:02:54;;;;;;;6.10;2.27;;;;;;;12.89;70.04;97053.84;4964161;28;20243;-56
2022/09/28 12:05:27;;;;;;;6.43;1.53;;;;;;;12.77;70.53;97057.09;4952318;28;20728;-56
2022/09/28 12:07:57;;;;;;;3.80;1.20;;;;;;;13.05;70.17;97056.03;4953438;28;20305;-54
2022/09/28 12:10:56;;;;;;;2.87;1.27;;;;;;;13.33;69.51;97062.00;4965297;28;20267;-52
2022/09/28 12:13:44;;;;;;;6.17;1.97;;;;;;;13.39;69.71;97056.75;4939807;28;20250;-55
2022/09/28 12:16:17;;;;;;;4.97;2.00;;;;;;;13.43;69.31;97057.16;4964150;28;20299;-55
2022/09/28 12:18:51;;;;;;;4.70;1.60;;;;;;;13.59;68.60;97055.88;4964181;28;20236;-55
2022/09/28 12:21:34;;;;;;;3.40;1.33;;;;;;;13.86;64.08;97059.16;4966274;28;20605;-53
2022/09/28 12:24:06;;;;;;;7.07;2.23;;;;;;;13.88;69.08;97053.69;4962796;28;20241;-56
2022/09/28 12:26:41;;;;;;;9.60;3.10;;;;;;;13.87;69.96;97054.72;4964534;28;20318;-56